sensor_id;sensor_type;location;lat;lon;timestamp;P1;P2;P0
55449;PMS5003;41318;58.724;50.180;2022-10-10T00:01:20;7.00;7.00;5.75
55449;PMS5003;41318;58.724;50.180;2022-10-10T00:03:52;6.50;6.50;5.25
55449;PMS5003;41318;58.724;50.180;2022-10-10T00:06:23;8.00;8.00;6.75
55449;PMS5003;41318;58.724;50.180;2022-10-10T00:08:54;5.25;5.25;4.75
55449;PMS5003;41318;58.724;50.180;2022-10-10T00:11:25;4.75;4.75;4.00
55449;PMS5003;41318;58.724;50.180;2022-10-10T00:14:15;6.50;6.50;5.25
55449;PMS5003;41318;58.724;50.180;2022-10-10T00:17:04;7.00;7.00;5.00
55449;PMS5003;41318;58.724;50.180;2022-10-10T00:19:35;5.25;5.25;4.25
55449;PMS5003;41318;58.724;50.180;2022-10-10T00:22:06;6.50;6.50;6.00
55449;PMS5003;41318;58.724;50.180;2022-10-10T00:24:37;7.50;7.50;5.75
55449;PMS5003;41318;58.724;50.180;2022-10-10T00:27:08;8.50;8.50;6.00
55449;PMS5003;41318;58.724;50.180;2022-10-10T00:29:40;6.00;6.00;4.75
55449;PMS5003;41318;58.724;50.180;2022-10-10T00:32:30;5.00;5.00;3.75
55449;PMS5003;41318;58.724;50.180;2022-10-10T00:35:01;6.75;6.75;5.00
55449;PMS5003;41318;58.724;50.180;2022-10-10T00:37:34;6.50;6.50;5.25
55449;PMS5003;41318;58.724;50.180;2022-10-10T00:40:05;5.50;5.50;4.00
55449;PMS5003;41318;58.724;50.180;2022-10-10T00:42:37;5.50;5.50;5.00
55449;PMS5003;41318;58.724;50.180;2022-10-10T00:47:59;6.00;6.00;5.00
55449;PMS5003;41318;58.724;50.180;2022-10-10T00:50:32;7.50;7.50;5.50
55449;PMS5003;41318;58.724;50.180;2022-10-10T00:53:05;5.00;5.00;4.00
55449;PMS5003;41318;58.724;50.180;2022-10-10T00:55:38;8.25;8.25;6.00
55449;PMS5003;41318;58.724;50.180;2022-10-10T00:58:09;5.50;5.50;4.25
55449;PMS5003;41318;58.724;50.180;2022-10-10T01:00:40;7.25;7.25;6.00
55449;PMS5003;41318;58.724;50.180;2022-10-10T01:03:11;5.50;5.50;4.75
55449;PMS5003;41318;58.724;50.180;2022-10-10T01:05:42;7.00;7.00;6.00
55449;PMS5003;41318;58.724;50.180;2022-10-10T01:08:15;7.25;7.25;6.50
55449;PMS5003;41318;58.724;50.180;2022-10-10T01:11:13;3.75;3.75;3.00
55449;PMS5003;41318;58.724;50.180;2022-10-10T01:13:53;4.00;4.00;3.00
55449;PMS5003;41318;58.724;50.180;2022-10-10T01:17:06;6.00;6.00;4.50
55449;PMS5003;41318;58.724;50.180;2022-10-10T01:27:52;4.50;4.50;4.25
55449;PMS5003;41318;58.724;50.180;2022-10-10T01:30:27;6.00;6.00;4.50
55449;PMS5003;41318;58.724;50.180;2022-10-10T01:33:04;6.25;5.50;4.50
55449;PMS5003;41318;58.724;50.180;2022-10-10T01:40:54;8.25;8.00;6.00
55449;PMS5003;41318;58.724;50.180;2022-10-10T01:43:30;6.50;6.50;4.75
55449;PMS5003;41318;58.724;50.180;2022-10-10T01:46:09;5.25;5.25;5.00
55449;PMS5003;41318;58.724;50.180;2022-10-10T01:48:40;7.00;7.00;6.00
55449;PMS5003;41318;58.724;50.180;2022-10-10T01:54:15;6.50;6.50;4.75
55449;PMS5003;41318;58.724;50.180;2022-10-10T01:56:58;6.50;6.50;5.50
55449;PMS5003;41318;58.724;50.180;2022-10-10T02:02:30;7.00;7.00;6.00
55449;PMS5003;41318;58.724;50.180;2022-10-10T02:05:00;8.25;8.00;7.00
55449;PMS5003;41318;58.724;50.180;2022-10-10T02:07:54;10.25;10.25;6.50
55449;PMS5003;41318;58.724;50.180;2022-10-10T02:10:30;12.00;12.00;8.00
55449;PMS5003;41318;58.724;50.180;2022-10-10T02:13:01;10.00;10.00;7.25
55449;PMS5003;41318;58.724;50.180;2022-10-10T02:15:42;8.75;8.75;6.00
55449;PMS5003;41318;58.724;50.180;2022-10-10T02:18:15;11.50;11.50;7.50
55449;PMS5003;41318;58.724;50.180;2022-10-10T02:20:49;0.00;0.00;0.00
55449;PMS5003;41318;58.724;50.180;2022-10-10T02:23:21;11.50;10.50;6.50
55449;PMS5003;41318;58.724;50.180;2022-10-10T02:25:53;12.00;12.00;8.50
55449;PMS5003;41318;58.724;50.180;2022-10-10T02:31:33;8.25;8.25;6.25
55449;PMS5003;41318;58.724;50.180;2022-10-10T02:34:10;14.50;13.75;7.75
55449;PMS5003;41318;58.724;50.180;2022-10-10T02:36:50;8.50;8.00;5.50
55449;PMS5003;41318;58.724;50.180;2022-10-10T02:39:23;10.25;10.25;6.75
55449;PMS5003;41318;58.724;50.180;2022-10-10T02:41:57;6.75;6.75;5.50
55449;PMS5003;41318;58.724;50.180;2022-10-10T02:44:28;6.50;6.50;5.50
55449;PMS5003;41318;58.724;50.180;2022-10-10T02:47:02;5.00;5.00;4.00
55449;PMS5003;41318;58.724;50.180;2022-10-10T02:49:52;7.25;7.25;6.00
55449;PMS5003;41318;58.724;50.180;2022-10-10T02:52:23;6.25;6.25;5.25
55449;PMS5003;41318;58.724;50.180;2022-10-10T02:54:54;8.00;8.00;6.75
55449;PMS5003;41318;58.724;50.180;2022-10-10T02:57:25;7.00;7.00;5.50
55449;PMS5003;41318;58.724;50.180;2022-10-10T02:59:57;7.50;7.50;5.50
55449;PMS5003;41318;58.724;50.180;2022-10-10T03:02:28;8.50;8.50;7.25
55449;PMS5003;41318;58.724;50.180;2022-10-10T03:04:59;10.25;10.25;7.75
55449;PMS5003;41318;58.724;50.180;2022-10-10T03:07:30;7.00;7.00;6.00
55449;PMS5003;41318;58.724;50.180;2022-10-10T03:10:01;7.25;7.25;5.00
55449;PMS5003;41318;58.724;50.180;2022-10-10T03:12:34;7.75;7.50;6.50
55449;PMS5003;41318;58.724;50.180;2022-10-10T03:15:08;7.25;7.25;5.75
55449;PMS5003;41318;58.724;50.180;2022-10-10T03:17:39;8.75;8.75;6.75
55449;PMS5003;41318;58.724;50.180;2022-10-10T03:20:10;7.75;7.75;6.50
55449;PMS5003;41318;58.724;50.180;2022-10-10T03:22:41;7.50;7.50;5.25
55449;PMS5003;41318;58.724;50.180;2022-10-10T03:25:12;17.25;17.00;10.25
55449;PMS5003;41318;58.724;50.180;2022-10-10T03:27:43;16.00;15.75;11.00
55449;PMS5003;41318;58.724;50.180;2022-10-10T03:30:14;14.75;14.75;9.75
55449;PMS5003;41318;58.724;50.180;2022-10-10T03:32:45;12.25;11.50;8.75
55449;PMS5003;41318;58.724;50.180;2022-10-10T03:35:17;14.75;14.75;10.75
55449;PMS5003;41318;58.724;50.180;2022-10-10T03:38:07;13.25;13.25;9.25
55449;PMS5003;41318;58.724;50.180;2022-10-10T03:40:41;16.00;16.00;10.75
55449;PMS5003;41318;58.724;50.180;2022-10-10T03:43:12;13.25;13.25;9.00
55449;PMS5003;41318;58.724;50.180;2022-10-10T03:45:44;18.00;18.00;14.25
55449;PMS5003;41318;58.724;50.180;2022-10-10T03:48:17;15.25;15.25;11.75
55449;PMS5003;41318;58.724;50.180;2022-10-10T03:50:48;11.75;11.75;9.00
55449;PMS5003;41318;58.724;50.180;2022-10-10T03:53:19;12.00;12.00;8.50
55449;PMS5003;41318;58.724;50.180;2022-10-10T03:55:51;18.50;18.50;13.25
55449;PMS5003;41318;58.724;50.180;2022-10-10T03:58:23;24.80;24.00;16.20
55449;PMS5003;41318;58.724;50.180;2022-10-10T04:01:12;17.25;17.25;13.75
55449;PMS5003;41318;58.724;50.180;2022-10-10T04:03:43;18.50;18.50;15.00
55449;PMS5003;41318;58.724;50.180;2022-10-10T04:06:15;30.00;29.40;18.60
55449;PMS5003;41318;58.724;50.180;2022-10-10T04:08:47;26.00;25.80;18.40
55449;PMS5003;41318;58.724;50.180;2022-10-10T04:11:36;20.50;20.00;15.25
55449;PMS5003;41318;58.724;50.180;2022-10-10T04:14:08;14.50;14.50;10.75
55449;PMS5003;41318;58.724;50.180;2022-10-10T04:16:57;13.50;13.50;9.50
55449;PMS5003;41318;58.724;50.180;2022-10-10T04:19:28;8.50;8.50;5.75
55449;PMS5003;41318;58.724;50.180;2022-10-10T04:21:59;8.00;8.00;5.00
55449;PMS5003;41318;58.724;50.180;2022-10-10T04:24:30;13.25;12.25;8.25
55449;PMS5003;41318;58.724;50.180;2022-10-10T04:27:01;14.67;14.67;10.67
55449;PMS5003;41318;58.724;50.180;2022-10-10T04:29:32;13.50;13.50;10.25
55449;PMS5003;41318;58.724;50.180;2022-10-10T04:32:21;10.50;10.25;8.50
55449;PMS5003;41318;58.724;50.180;2022-10-10T04:34:53;8.00;8.00;7.00
55449;PMS5003;41318;58.724;50.180;2022-10-10T04:37:24;15.00;15.00;10.25
55449;PMS5003;41318;58.724;50.180;2022-10-10T04:39:55;17.00;17.00;12.75
55449;PMS5003;41318;58.724;50.180;2022-10-10T04:42:26;19.00;19.00;14.00
55449;PMS5003;41318;58.724;50.180;2022-10-10T04:44:57;26.00;25.00;18.80
55449;PMS5003;41318;58.724;50.180;2022-10-10T04:47:28;28.00;27.80;18.20
55449;PMS5003;41318;58.724;50.180;2022-10-10T04:49:59;21.75;20.75;14.25
55449;PMS5003;41318;58.724;50.180;2022-10-10T04:52:31;20.75;20.75;14.50
55449;PMS5003;41318;58.724;50.180;2022-10-10T04:55:02;18.00;18.00;15.25
55449;PMS5003;41318;58.724;50.180;2022-10-10T04:57:34;20.00;19.75;16.25
55449;PMS5003;41318;58.724;50.180;2022-10-10T05:00:05;19.25;18.50;12.25
55449;PMS5003;41318;58.724;50.180;2022-10-10T05:02:37;24.60;22.40;15.80
55449;PMS5003;41318;58.724;50.180;2022-10-10T05:05:08;25.20;24.40;17.40
55449;PMS5003;41318;58.724;50.180;2022-10-10T05:07:39;24.20;21.40;16.20
55449;PMS5003;41318;58.724;50.180;2022-10-10T05:10:10;23.20;23.20;16.60
55449;PMS5003;41318;58.724;50.180;2022-10-10T05:12:42;25.80;24.00;18.20
55449;PMS5003;41318;58.724;50.180;2022-10-10T05:15:13;26.00;23.40;15.00
55449;PMS5003;41318;58.724;50.180;2022-10-10T05:17:45;16.80;16.80;13.40
55449;PMS5003;41318;58.724;50.180;2022-10-10T05:20:16;21.00;21.00;16.20
55449;PMS5003;41318;58.724;50.180;2022-10-10T05:22:47;20.80;20.80;15.00
55449;PMS5003;41318;58.724;50.180;2022-10-10T05:25:18;18.00;17.75;12.50
55449;PMS5003;41318;58.724;50.180;2022-10-10T05:27:50;17.75;17.75;13.25
55449;PMS5003;41318;58.724;50.180;2022-10-10T05:30:21;16.50;16.50;9.00
55449;PMS5003;41318;58.724;50.180;2022-10-10T05:32:52;19.60;19.40;15.00
55449;PMS5003;41318;58.724;50.180;2022-10-10T05:35:24;17.50;17.50;13.50
55449;PMS5003;41318;58.724;50.180;2022-10-10T05:37:55;19.40;19.40;14.20
55449;PMS5003;41318;58.724;50.180;2022-10-10T05:40:46;22.40;22.40;17.60
55449;PMS5003;41318;58.724;50.180;2022-10-10T05:43:18;22.40;22.40;15.60
55449;PMS5003;41318;58.724;50.180;2022-10-10T05:46:08;25.80;25.80;17.80
55449;PMS5003;41318;58.724;50.180;2022-10-10T05:48:39;27.60;26.60;18.00
55449;PMS5003;41318;58.724;50.180;2022-10-10T05:51:10;34.60;32.80;21.20
55449;PMS5003;41318;58.724;50.180;2022-10-10T05:53:43;29.00;26.40;17.20
55449;PMS5003;41318;58.724;50.180;2022-10-10T05:56:14;31.00;30.80;18.40
55449;PMS5003;41318;58.724;50.180;2022-10-10T05:58:47;25.20;24.40;15.80
55449;PMS5003;41318;58.724;50.180;2022-10-10T06:01:19;19.40;19.40;12.60
55449;PMS5003;41318;58.724;50.180;2022-10-10T06:03:50;17.20;17.20;13.20
55449;PMS5003;41318;58.724;50.180;2022-10-10T06:06:25;22.75;22.75;16.00
55449;PMS5003;41318;58.724;50.180;2022-10-10T06:08:56;18.00;16.50;11.00
55449;PMS5003;41318;58.724;50.180;2022-10-10T06:11:28;26.20;25.60;17.40
55449;PMS5003;41318;58.724;50.180;2022-10-10T06:14:00;14.00;14.00;9.00
55449;PMS5003;41318;58.724;50.180;2022-10-10T06:16:50;18.25;18.25;12.25
55449;PMS5003;41318;58.724;50.180;2022-10-10T06:19:21;21.75;21.75;15.50
55449;PMS5003;41318;58.724;50.180;2022-10-10T06:22:11;21.40;21.40;17.60
55449;PMS5003;41318;58.724;50.180;2022-10-10T06:24:42;13.00;12.75;9.50
55449;PMS5003;41318;58.724;50.180;2022-10-10T06:27:13;10.75;10.75;8.00
55449;PMS5003;41318;58.724;50.180;2022-10-10T06:30:03;14.00;12.50;9.00
55449;PMS5003;41318;58.724;50.180;2022-10-10T06:32:53;12.25;12.00;10.75
55449;PMS5003;41318;58.724;50.180;2022-10-10T06:35:25;13.25;12.75;8.50
55449;PMS5003;41318;58.724;50.180;2022-10-10T06:38:15;12.25;12.25;9.00
55449;PMS5003;41318;58.724;50.180;2022-10-10T06:40:47;12.50;12.25;10.00
55449;PMS5003;41318;58.724;50.180;2022-10-10T06:43:18;7.50;7.50;5.75
55449;PMS5003;41318;58.724;50.180;2022-10-10T06:45:50;6.00;6.00;5.00
55449;PMS5003;41318;58.724;50.180;2022-10-10T06:48:21;7.75;7.75;6.00
55449;PMS5003;41318;58.724;50.180;2022-10-10T06:50:56;7.00;7.00;6.00
55449;PMS5003;41318;58.724;50.180;2022-10-10T06:53:46;6.00;6.00;5.00
55449;PMS5003;41318;58.724;50.180;2022-10-10T06:56:17;5.75;5.75;4.00
55449;PMS5003;41318;58.724;50.180;2022-10-10T06:58:51;6.25;6.25;5.00
55449;PMS5003;41318;58.724;50.180;2022-10-10T07:01:22;7.25;7.25;5.50
55449;PMS5003;41318;58.724;50.180;2022-10-10T07:03:54;10.00;10.00;9.00
55449;PMS5003;41318;58.724;50.180;2022-10-10T07:06:44;5.25;5.25;4.50
55449;PMS5003;41318;58.724;50.180;2022-10-10T07:09:15;6.50;6.50;5.75
55449;PMS5003;41318;58.724;50.180;2022-10-10T07:11:48;6.50;6.50;5.50
55449;PMS5003;41318;58.724;50.180;2022-10-10T07:14:38;6.25;6.00;5.00
55449;PMS5003;41318;58.724;50.180;2022-10-10T07:17:09;4.50;4.50;4.00
55449;PMS5003;41318;58.724;50.180;2022-10-10T07:19:40;6.00;5.75;4.75
55449;PMS5003;41318;58.724;50.180;2022-10-10T07:22:11;9.00;9.00;7.50
55449;PMS5003;41318;58.724;50.180;2022-10-10T07:24:44;6.00;6.00;6.00
55449;PMS5003;41318;58.724;50.180;2022-10-10T07:27:15;8.50;8.50;7.25
55449;PMS5003;41318;58.724;50.180;2022-10-10T07:29:46;7.25;7.25;6.00
55449;PMS5003;41318;58.724;50.180;2022-10-10T07:32:36;5.00;5.00;4.50
55449;PMS5003;41318;58.724;50.180;2022-10-10T07:35:07;5.00;5.00;4.25
55449;PMS5003;41318;58.724;50.180;2022-10-10T07:37:38;6.25;6.25;5.00
55449;PMS5003;41318;58.724;50.180;2022-10-10T07:40:09;5.50;5.50;5.50
55449;PMS5003;41318;58.724;50.180;2022-10-10T07:42:41;8.00;8.00;6.00
55449;PMS5003;41318;58.724;50.180;2022-10-10T07:45:13;4.00;4.00;3.50
55449;PMS5003;41318;58.724;50.180;2022-10-10T07:47:44;6.00;6.00;5.00
55449;PMS5003;41318;58.724;50.180;2022-10-10T07:50:15;10.00;10.00;8.50
55449;PMS5003;41318;58.724;50.180;2022-10-10T07:52:46;10.00;10.00;8.00
55449;PMS5003;41318;58.724;50.180;2022-10-10T07:55:40;8.25;8.25;6.50
55449;PMS5003;41318;58.724;50.180;2022-10-10T07:58:11;3.00;3.00;2.00
55449;PMS5003;41318;58.724;50.180;2022-10-10T08:00:43;6.00;6.00;5.00
55449;PMS5003;41318;58.724;50.180;2022-10-10T08:03:14;6.00;6.00;4.50
55449;PMS5003;41318;58.724;50.180;2022-10-10T08:05:45;8.25;8.25;6.25
55449;PMS5003;41318;58.724;50.180;2022-10-10T08:08:16;7.33;7.33;6.00
55449;PMS5003;41318;58.724;50.180;2022-10-10T08:10:47;4.67;4.67;4.00
55449;PMS5003;41318;58.724;50.180;2022-10-10T08:13:18;2.00;2.00;2.00
55449;PMS5003;41318;58.724;50.180;2022-10-10T08:15:49;5.25;5.25;3.00
55449;PMS5003;41318;58.724;50.180;2022-10-10T08:18:21;5.25;5.25;4.75
55449;PMS5003;41318;58.724;50.180;2022-10-10T08:21:02;2.75;2.75;2.50
55449;PMS5003;41318;58.724;50.180;2022-10-10T08:23:52;2.75;2.75;2.00
55449;PMS5003;41318;58.724;50.180;2022-10-10T08:26:22;2.00;2.00;1.75
55449;PMS5003;41318;58.724;50.180;2022-10-10T08:28:53;4.00;4.00;3.00
55449;PMS5003;41318;58.724;50.180;2022-10-10T08:31:24;2.00;2.00;2.00
55449;PMS5003;41318;58.724;50.180;2022-10-10T08:33:55;2.50;2.50;2.00
55449;PMS5003;41318;58.724;50.180;2022-10-10T08:36:26;9.25;9.25;7.50
55449;PMS5003;41318;58.724;50.180;2022-10-10T08:38:57;1.00;1.00;0.75
55449;PMS5003;41318;58.724;50.180;2022-10-10T08:41:50;1.00;1.00;1.00
55449;PMS5003;41318;58.724;50.180;2022-10-10T08:44:24;0.00;0.00;0.00
55449;PMS5003;41318;58.724;50.180;2022-10-10T08:46:58;6.00;6.00;5.00
55449;PMS5003;41318;58.724;50.180;2022-10-10T08:52:04;3.50;3.50;3.00
55449;PMS5003;41318;58.724;50.180;2022-10-10T08:54:37;3.00;3.00;2.50
55449;PMS5003;41318;58.724;50.180;2022-10-10T08:57:22;2.00;2.00;2.00
55449;PMS5003;41318;58.724;50.180;2022-10-10T08:59:58;4.50;4.50;4.50
55449;PMS5003;41318;58.724;50.180;2022-10-10T09:02:33;1.00;1.00;0.00
55449;PMS5003;41318;58.724;50.180;2022-10-10T09:05:05;3.25;3.25;2.75
55449;PMS5003;41318;58.724;50.180;2022-10-10T09:10:20;8.25;8.25;6.75
55449;PMS5003;41318;58.724;50.180;2022-10-10T09:15:53;6.50;6.50;5.00
55449;PMS5003;41318;58.724;50.180;2022-10-10T09:18:30;5.75;5.75;4.75
55449;PMS5003;41318;58.724;50.180;2022-10-10T09:26:14;1.00;1.00;0.00
55449;PMS5003;41318;58.724;50.180;2022-10-10T09:32:22;2.50;2.50;1.00
55449;PMS5003;41318;58.724;50.180;2022-10-10T09:34:55;10.00;9.75;8.00
55449;PMS5003;41318;58.724;50.180;2022-10-10T09:37:34;1.00;1.00;1.00
55449;PMS5003;41318;58.724;50.180;2022-10-10T09:40:16;1.00;1.00;1.00
55449;PMS5003;41318;58.724;50.180;2022-10-10T09:42:48;2.00;2.00;1.00
55449;PMS5003;41318;58.724;50.180;2022-10-10T09:45:38;2.00;2.00;2.00
55449;PMS5003;41318;58.724;50.180;2022-10-10T09:48:11;4.25;4.25;3.00
55449;PMS5003;41318;58.724;50.180;2022-10-10T09:50:42;5.33;5.33;4.00
55449;PMS5003;41318;58.724;50.180;2022-10-10T09:53:13;4.00;4.00;3.67
55449;PMS5003;41318;58.724;50.180;2022-10-10T09:56:04;3.00;3.00;3.00
55449;PMS5003;41318;58.724;50.180;2022-10-10T09:58:39;3.00;3.00;2.00
55449;PMS5003;41318;58.724;50.180;2022-10-10T10:01:12;2.75;2.75;2.00
55449;PMS5003;41318;58.724;50.180;2022-10-10T10:03:43;6.00;6.00;4.25
55449;PMS5003;41318;58.724;50.180;2022-10-10T10:06:15;8.25;7.50;6.25
55449;PMS5003;41318;58.724;50.180;2022-10-10T10:08:46;6.67;6.67;5.33
55449;PMS5003;41318;58.724;50.180;2022-10-10T10:11:24;2.00;2.00;2.00
55449;PMS5003;41318;58.724;50.180;2022-10-10T10:13:56;2.75;2.75;2.00
55449;PMS5003;41318;58.724;50.180;2022-10-10T10:16:50;4.00;4.00;3.00
55449;PMS5003;41318;58.724;50.180;2022-10-10T10:19:41;4.00;4.00;3.00
55449;PMS5003;41318;58.724;50.180;2022-10-10T10:22:36;1.75;1.75;1.25
55449;PMS5003;41318;58.724;50.180;2022-10-10T10:25:41;2.75;2.75;2.00
55449;PMS5003;41318;58.724;50.180;2022-10-10T10:28:24;0.33;0.33;0.33
55449;PMS5003;41318;58.724;50.180;2022-10-10T10:31:19;1.00;1.00;0.50
55449;PMS5003;41318;58.724;50.180;2022-10-10T10:39:23;0.00;0.00;0.00
55449;PMS5003;41318;58.724;50.180;2022-10-10T10:44:39;2.00;2.00;1.00
55449;PMS5003;41318;58.724;50.180;2022-10-10T10:52:53;0.00;0.00;0.00
55449;PMS5003;41318;58.724;50.180;2022-10-10T10:55:36;0.75;0.75;0.00
55449;PMS5003;41318;58.724;50.180;2022-10-10T11:00:56;3.50;3.50;3.00
55449;PMS5003;41318;58.724;50.180;2022-10-10T11:03:56;13.75;13.75;8.00
55449;PMS5003;41318;58.724;50.180;2022-10-10T11:06:38;26.80;23.00;12.60
55449;PMS5003;41318;58.724;50.180;2022-10-10T11:09:24;6.00;6.00;5.00
55449;PMS5003;41318;58.724;50.180;2022-10-10T11:12:08;2.75;2.75;2.00
55449;PMS5003;41318;58.724;50.180;2022-10-10T11:17:59;1.00;1.00;0.75
55449;PMS5003;41318;58.724;50.180;2022-10-10T11:20:37;0.00;0.00;0.00
55449;PMS5003;41318;58.724;50.180;2022-10-10T11:23:12;1.00;1.00;1.00
55449;PMS5003;41318;58.724;50.180;2022-10-10T11:25:55;0.00;0.00;0.00
55449;PMS5003;41318;58.724;50.180;2022-10-10T11:28:31;1.00;1.00;0.00
55449;PMS5003;41318;58.724;50.180;2022-10-10T11:32:05;18.00;17.25;10.25
55449;PMS5003;41318;58.724;50.180;2022-10-10T11:34:30;3.75;3.75;2.50
55449;PMS5003;41318;58.724;50.180;2022-10-10T11:37:04;1.00;1.00;1.00
55449;PMS5003;41318;58.724;50.180;2022-10-10T11:39:44;10.75;10.50;6.00
55449;PMS5003;41318;58.724;50.180;2022-10-10T11:42:25;1.00;1.00;0.75
55449;PMS5003;41318;58.724;50.180;2022-10-10T11:44:58;1.00;1.00;0.50
55449;PMS5003;41318;58.724;50.180;2022-10-10T11:47:39;1.75;1.75;1.50
55449;PMS5003;41318;58.724;50.180;2022-10-10T11:53:04;3.75;3.75;3.00
55449;PMS5003;41318;58.724;50.180;2022-10-10T12:00:47;1.75;1.75;1.75
55449;PMS5003;41318;58.724;50.180;2022-10-10T12:03:19;5.50;5.50;4.00
55449;PMS5003;41318;58.724;50.180;2022-10-10T12:06:14;3.67;3.67;3.00
55449;PMS5003;41318;58.724;50.180;2022-10-10T12:08:43;11.75;11.75;7.00
55449;PMS5003;41318;58.724;50.180;2022-10-10T12:11:27;9.00;9.00;6.00
55449;PMS5003;41318;58.724;50.180;2022-10-10T12:13:59;12.25;12.25;8.00
55449;PMS5003;41318;58.724;50.180;2022-10-10T12:16:32;11.75;11.75;7.75
55449;PMS5003;41318;58.724;50.180;2022-10-10T12:19:24;11.75;11.75;7.75
55449;PMS5003;41318;58.724;50.180;2022-10-10T12:21:57;27.40;27.20;13.80
55449;PMS5003;41318;58.724;50.180;2022-10-10T12:24:30;51.60;42.00;21.40
55449;PMS5003;41318;58.724;50.180;2022-10-10T12:32:26;8.00;8.00;6.00
55449;PMS5003;41318;58.724;50.180;2022-10-10T12:34:58;4.75;4.75;3.00
55449;PMS5003;41318;58.724;50.180;2022-10-10T12:37:30;1.25;1.25;1.00
55449;PMS5003;41318;58.724;50.180;2022-10-10T12:40:20;3.75;3.75;3.00
55449;PMS5003;41318;58.724;50.180;2022-10-10T12:43:35;29.60;28.20;15.00
55449;PMS5003;41318;58.724;50.180;2022-10-10T12:46:15;21.40;21.00;11.80
55449;PMS5003;41318;58.724;50.180;2022-10-10T12:51:32;8.75;8.75;7.50
55449;PMS5003;41318;58.724;50.180;2022-10-10T12:54:24;7.50;7.50;6.00
55449;PMS5003;41318;58.724;50.180;2022-10-10T12:57:08;12.50;12.50;9.50
55449;PMS5003;41318;58.724;50.180;2022-10-10T12:59:43;12.50;12.25;8.00
55449;PMS5003;41318;58.724;50.180;2022-10-10T13:02:19;13.80;13.80;9.40
55449;PMS5003;41318;58.724;50.180;2022-10-10T13:05:00;12.50;12.50;9.00
55449;PMS5003;41318;58.724;50.180;2022-10-10T13:07:50;8.25;8.00;6.00
55449;PMS5003;41318;58.724;50.180;2022-10-10T13:10:24;9.75;9.25;6.25
55449;PMS5003;41318;58.724;50.180;2022-10-10T13:15:49;11.00;10.80;7.80
55449;PMS5003;41318;58.724;50.180;2022-10-10T13:18:34;10.25;10.25;8.00
55449;PMS5003;41318;58.724;50.180;2022-10-10T13:21:06;11.50;10.25;7.25
55449;PMS5003;41318;58.724;50.180;2022-10-10T13:24:22;6.75;6.75;5.75
55449;PMS5003;41318;58.724;50.180;2022-10-10T13:31:54;6.25;6.25;5.00
55449;PMS5003;41318;58.724;50.180;2022-10-10T13:34:28;14.40;14.40;10.00
55449;PMS5003;41318;58.724;50.180;2022-10-10T13:37:00;18.80;18.20;11.00
55449;PMS5003;41318;58.724;50.180;2022-10-10T13:39:33;21.20;20.20;11.20
55449;PMS5003;41318;58.724;50.180;2022-10-10T13:42:23;26.60;25.20;12.60
55449;PMS5003;41318;58.724;50.180;2022-10-10T13:44:56;26.20;24.40;15.20
55449;PMS5003;41318;58.724;50.180;2022-10-10T13:50:20;54.20;45.00;27.00
55449;PMS5003;41318;58.724;50.180;2022-10-10T13:56:01;25.40;24.00;15.00
55449;PMS5003;41318;58.724;50.180;2022-10-10T14:01:27;51.60;43.20;26.00
55449;PMS5003;41318;58.724;50.180;2022-10-10T14:04:00;54.40;44.60;28.00
55449;PMS5003;41318;58.724;50.180;2022-10-10T14:06:33;67.60;52.20;31.40
55449;PMS5003;41318;58.724;50.180;2022-10-10T14:09:05;63.80;50.80;30.00
55449;PMS5003;41318;58.724;50.180;2022-10-10T14:11:39;78.20;65.20;36.60
55449;PMS5003;41318;58.724;50.180;2022-10-10T14:14:14;82.80;73.00;42.20
55449;PMS5003;41318;58.724;50.180;2022-10-10T14:17:04;80.80;71.00;38.20
55449;PMS5003;41318;58.724;50.180;2022-10-10T14:19:36;61.00;50.00;30.20
55449;PMS5003;41318;58.724;50.180;2022-10-10T14:22:07;53.40;43.20;28.20
55449;PMS5003;41318;58.724;50.180;2022-10-10T14:24:38;40.60;35.80;24.20
55449;PMS5003;41318;58.724;50.180;2022-10-10T14:27:27;50.60;41.40;26.60
55449;PMS5003;41318;58.724;50.180;2022-10-10T14:29:58;38.00;35.75;24.00
55449;PMS5003;41318;58.724;50.180;2022-10-10T14:32:29;28.60;27.60;18.60
55449;PMS5003;41318;58.724;50.180;2022-10-10T14:35:00;39.00;36.00;22.75
55449;PMS5003;41318;58.724;50.180;2022-10-10T14:37:30;29.60;29.00;20.60
55449;PMS5003;41318;58.724;50.180;2022-10-10T14:40:02;26.40;26.00;16.80
55449;PMS5003;41318;58.724;50.180;2022-10-10T14:42:33;18.60;16.40;8.80
55449;PMS5003;41318;58.724;50.180;2022-10-10T14:45:04;32.00;30.20;17.20
55449;PMS5003;41318;58.724;50.180;2022-10-10T14:47:35;45.20;39.00;23.20
55449;PMS5003;41318;58.724;50.180;2022-10-10T14:50:19;52.00;40.00;25.25
55449;PMS5003;41318;58.724;50.180;2022-10-10T14:52:53;52.00;43.40;28.60
55449;PMS5003;41318;58.724;50.180;2022-10-10T14:55:42;51.40;42.00;26.60
55449;PMS5003;41318;58.724;50.180;2022-10-10T14:58:16;51.00;42.80;25.20
55449;PMS5003;41318;58.724;50.180;2022-10-10T15:00:49;31.40;30.20;16.60
55449;PMS5003;41318;58.724;50.180;2022-10-10T15:03:20;40.80;35.00;23.40
55449;PMS5003;41318;58.724;50.180;2022-10-10T15:06:10;38.60;35.20;22.40
55449;PMS5003;41318;58.724;50.180;2022-10-10T15:08:41;34.60;33.40;21.80
55449;PMS5003;41318;58.724;50.180;2022-10-10T15:11:14;41.25;37.75;22.25
55449;PMS5003;41318;58.724;50.180;2022-10-10T15:13:45;41.00;36.80;23.60
55449;PMS5003;41318;58.724;50.180;2022-10-10T15:16:17;19.00;19.00;14.00
55449;PMS5003;41318;58.724;50.180;2022-10-10T15:18:48;24.80;23.20;17.20
55449;PMS5003;41318;58.724;50.180;2022-10-10T15:21:38;34.00;32.00;19.60
55449;PMS5003;41318;58.724;50.180;2022-10-10T15:24:28;30.20;26.40;18.80
55449;PMS5003;41318;58.724;50.180;2022-10-10T15:26:59;28.50;26.00;14.25
55449;PMS5003;41318;58.724;50.180;2022-10-10T15:29:49;33.40;32.40;23.60
55449;PMS5003;41318;58.724;50.180;2022-10-10T15:32:39;32.60;30.20;20.00
55449;PMS5003;41318;58.724;50.180;2022-10-10T15:35:15;23.20;22.20;17.80
55449;PMS5003;41318;58.724;50.180;2022-10-10T15:37:47;37.60;34.20;19.80
55449;PMS5003;41318;58.724;50.180;2022-10-10T15:40:19;50.60;42.20;26.40
55449;PMS5003;41318;58.724;50.180;2022-10-10T15:42:51;43.60;39.00;23.80
55449;PMS5003;41318;58.724;50.180;2022-10-10T15:45:21;54.00;44.25;26.50
55449;PMS5003;41318;58.724;50.180;2022-10-10T15:47:52;42.40;38.00;23.60
55449;PMS5003;41318;58.724;50.180;2022-10-10T15:50:24;32.25;32.00;22.00
55449;PMS5003;41318;58.724;50.180;2022-10-10T15:52:55;38.80;35.60;25.40
55449;PMS5003;41318;58.724;50.180;2022-10-10T15:55:25;33.80;33.60;22.00
55449;PMS5003;41318;58.724;50.180;2022-10-10T15:57:56;29.00;28.25;19.50
55449;PMS5003;41318;58.724;50.180;2022-10-10T16:00:27;56.25;47.50;34.75
55449;PMS5003;41318;58.724;50.180;2022-10-10T16:03:16;28.80;28.20;23.00
55449;PMS5003;41318;58.724;50.180;2022-10-10T16:05:47;25.40;24.60;15.80
55449;PMS5003;41318;58.724;50.180;2022-10-10T16:08:18;32.25;31.50;19.75
55449;PMS5003;41318;58.724;50.180;2022-10-10T16:10:49;24.20;21.20;17.40
55449;PMS5003;41318;58.724;50.180;2022-10-10T16:13:20;26.00;26.00;19.50
55449;PMS5003;41318;58.724;50.180;2022-10-10T16:15:55;23.40;22.80;17.20
55449;PMS5003;41318;58.724;50.180;2022-10-10T16:18:27;19.80;19.80;15.80